sensor_id;sensor_type;location;lat;lon;timestamp;pressure;altitude;pressure_sealevel;temperature;humidity
75940;BME280;75809;44.872;20.642;2024-03-23T00:55:27;100486.06;;;11.36;51.03
75940;BME280;75809;44.872;20.642;2024-03-23T00:57:53;100491.34;;;11.06;51.13
75940;BME280;75809;44.872;20.642;2024-03-23T01:00:18;100489.84;;;11.01;50.71
75940;BME280;75809;44.872;20.642;2024-03-23T01:02:44;100484.94;;;10.95;50.92
75940;BME280;75809;44.872;20.642;2024-03-23T01:05:09;100495.19;;;10.70;51.71
75940;BME280;75809;44.872;20.642;2024-03-23T01:07:35;100491.28;;;10.61;50.80
75940;BME280;75809;44.872;20.642;2024-03-23T01:10:00;100491.81;;;10.52;50.70
75940;BME280;75809;44.872;20.642;2024-03-23T01:12:26;100494.03;;;10.28;51.56
75940;BME280;75809;44.872;20.642;2024-03-23T01:14:51;100491.78;;;10.21;51.53
75940;BME280;75809;44.872;20.642;2024-03-23T01:17:17;100491.00;;;10.19;51.13
75940;BME280;75809;44.872;20.642;2024-03-23T01:19:42;100488.47;;;10.17;51.56
75940;BME280;75809;44.872;20.642;2024-03-23T01:22:08;100487.88;;;10.12;51.39
75940;BME280;75809;44.872;20.642;2024-03-23T01:24:35;100483.09;;;10.19;52.76
75940;BME280;75809;44.872;20.642;2024-03-23T01:27:00;100474.69;;;10.28;53.26
75940;BME280;75809;44.872;20.642;2024-03-23T01:29:26;100484.47;;;10.41;53.18
75940;BME280;75809;44.872;20.642;2024-03-23T01:31:51;100475.81;;;10.39;52.51
75940;BME280;75809;44.872;20.642;2024-03-23T01:34:17;100480.38;;;10.04;53.11
75940;BME280;75809;44.872;20.642;2024-03-23T01:36:42;100481.56;;;10.14;52.14
75940;BME280;75809;44.872;20.642;2024-03-23T01:39:08;100471.34;;;10.08;52.66
75940;BME280;75809;44.872;20.642;2024-03-23T01:41:36;100473.88;;;9.94;52.52
75940;BME280;75809;44.872;20.642;2024-03-23T01:44:05;100478.31;;;9.94;52.97
75940;BME280;75809;44.872;20.642;2024-03-23T01:46:33;100468.03;;;9.89;53.22
75940;BME280;75809;44.872;20.642;2024-03-23T01:48:59;100477.97;;;9.51;54.29
75940;BME280;75809;44.872;20.642;2024-03-23T01:51:25;100470.16;;;9.65;54.19
75940;BME280;75809;44.872;20.642;2024-03-23T01:53:52;100459.50;;;9.51;54.45
75940;BME280;75809;44.872;20.642;2024-03-23T01:56:20;100456.72;;;9.54;54.21
75940;BME280;75809;44.872;20.642;2024-03-23T01:58:45;100460.09;;;9.56;54.02
75940;BME280;75809;44.872;20.642;2024-03-23T02:01:11;100459.13;;;9.59;54.49
75940;BME280;75809;44.872;20.642;2024-03-23T02:03:37;100450.50;;;9.55;53.91
75940;BME280;75809;44.872;20.642;2024-03-23T02:06:02;100455.34;;;9.47;54.10
75940;BME280;75809;44.872;20.642;2024-03-23T02:08:28;100461.31;;;9.33;54.44
75940;BME280;75809;44.872;20.642;2024-03-23T02:10:55;100456.00;;;9.17;54.83
75940;BME280;75809;44.872;20.642;2024-03-23T02:13:21;100454.59;;;9.10;55.32
75940;BME280;75809;44.872;20.642;2024-03-23T02:15:46;100451.41;;;9.21;55.03
75940;BME280;75809;44.872;20.642;2024-03-23T02:18:12;100453.59;;;9.13;55.13
75940;BME280;75809;44.872;20.642;2024-03-23T02:20:38;100448.72;;;9.05;55.21
75940;BME280;75809;44.872;20.642;2024-03-23T02:23:04;100445.28;;;9.03;54.97
75940;BME280;75809;44.872;20.642;2024-03-23T02:25:32;100441.03;;;9.01;55.32
75940;BME280;75809;44.872;20.642;2024-03-23T02:27:58;100436.31;;;8.90;55.05
75940;BME280;75809;44.872;20.642;2024-03-23T02:30:25;100437.09;;;8.92;55.36
75940;BME280;75809;44.872;20.642;2024-03-23T02:32:50;100432.91;;;8.88;55.45
75940;BME280;75809;44.872;20.642;2024-03-23T02:35:16;100433.53;;;8.76;56.03
75940;BME280;75809;44.872;20.642;2024-03-23T02:37:41;100432.22;;;8.84;55.49
75940;BME280;75809;44.872;20.642;2024-03-23T02:40:07;100433.38;;;8.79;55.54
75940;BME280;75809;44.872;20.642;2024-03-23T02:42:32;100429.41;;;8.70;55.50
75940;BME280;75809;44.872;20.642;2024-03-23T02:44:58;100426.88;;;8.68;55.30
75940;BME280;75809;44.872;20.642;2024-03-23T02:47:24;100427.31;;;8.59;55.38
75940;BME280;75809;44.872;20.642;2024-03-23T02:49:49;100427.56;;;8.55;55.31
75940;BME280;75809;44.872;20.642;2024-03-23T02:52:15;100424.06;;;8.54;55.48
75940;BME280;75809;44.872;20.642;2024-03-23T02:54:40;100424.22;;;8.51;55.28
75940;BME280;75809;44.872;20.642;2024-03-23T02:57:10;100416.28;;;8.34;56.04
75940;BME280;75809;44.872;20.642;2024-03-23T02:59:35;100412.38;;;8.24;56.13
75940;BME280;75809;44.872;20.642;2024-03-23T03:02:01;100411.13;;;8.13;56.04
75940;BME280;75809;44.872;20.642;2024-03-23T03:04:26;100403.03;;;7.99;56.37
75940;BME280;75809;44.872;20.642;2024-03-23T03:06:52;100405.78;;;7.96;56.94
75940;BME280;75809;44.872;20.642;2024-03-23T03:09:17;100409.66;;;7.89;56.14
75940;BME280;75809;44.872;20.642;2024-03-23T03:11:43;100409.78;;;7.86;56.08
75940;BME280;75809;44.872;20.642;2024-03-23T03:14:08;100409.94;;;7.83;56.56
75940;BME280;75809;44.872;20.642;2024-03-23T03:16:34;100398.13;;;7.73;56.66
75940;BME280;75809;44.872;20.642;2024-03-23T03:18:59;100397.06;;;7.58;57.45
75940;BME280;75809;44.872;20.642;2024-03-23T03:21:25;100391.03;;;7.56;57.22
75940;BME280;75809;44.872;20.642;2024-03-23T03:23:51;100394.72;;;7.52;57.38
75940;BME280;75809;44.872;20.642;2024-03-23T03:26:17;100395.56;;;7.52;56.88
75940;BME280;75809;44.872;20.642;2024-03-23T03:28:43;100388.09;;;7.43;57.98
75940;BME280;75809;44.872;20.642;2024-03-23T03:31:10;100391.78;;;7.39;58.26
75940;BME280;75809;44.872;20.642;2024-03-23T03:33:35;100389.16;;;7.39;57.44
75940;BME280;75809;44.872;20.642;2024-03-23T03:36:01;100389.31;;;7.36;57.87
75940;BME280;75809;44.872;20.642;2024-03-23T03:38:26;100385.56;;;7.21;58.53
75940;BME280;75809;44.872;20.642;2024-03-23T03:40:53;100389.34;;;7.16;58.88
75940;BME280;75809;44.872;20.642;2024-03-23T03:43:18;100377.84;;;7.18;58.87
75940;BME280;75809;44.872;20.642;2024-03-23T03:45:53;100375.81;;;7.25;58.22
75940;BME280;75809;44.872;20.642;2024-03-23T03:48:19;100376.72;;;7.24;57.92
75940;BME280;75809;44.872;20.642;2024-03-23T03:50:44;100377.91;;;7.17;58.01
75940;BME280;75809;44.872;20.642;2024-03-23T03:53:09;100377.78;;;7.20;58.30
75940;BME280;75809;44.872;20.642;2024-03-23T03:55:35;100371.75;;;7.18;57.95
75940;BME280;75809;44.872;20.642;2024-03-23T03:58:00;100376.34;;;7.13;58.83
75940;BME280;75809;44.872;20.642;2024-03-23T04:00:26;100371.16;;;7.11;58.12
75940;BME280;75809;44.872;20.642;2024-03-23T04:02:51;100375.06;;;7.03;58.85
75940;BME280;75809;44.872;20.642;2024-03-23T04:05:17;100369.22;;;6.96;59.15
75940;BME280;75809;44.872;20.642;2024-03-23T04:07:42;100373.84;;;6.89;59.08
75940;BME280;75809;44.872;20.642;2024-03-23T04:10:08;100375.31;;;6.96;58.44
75940;BME280;75809;44.872;20.642;2024-03-23T04:12:34;100380.81;;;6.90;58.88
75940;BME280;75809;44.872;20.642;2024-03-23T04:15:00;100376.00;;;6.81;59.76
75940;BME280;75809;44.872;20.642;2024-03-23T04:17:26;100380.44;;;6.79;59.42
75940;BME280;75809;44.872;20.642;2024-03-23T04:19:57;100378.66;;;6.80;60.25
75940;BME280;75809;44.872;20.642;2024-03-23T04:22:22;100387.53;;;6.77;60.39
75940;BME280;75809;44.872;20.642;2024-03-23T04:24:49;100384.50;;;6.66;59.90
75940;BME280;75809;44.872;20.642;2024-03-23T04:27:15;100383.59;;;6.67;60.09
75940;BME280;75809;44.872;20.642;2024-03-23T04:29:40;100384.31;;;6.71;60.39
75940;BME280;75809;44.872;20.642;2024-03-23T04:32:06;100387.81;;;6.71;60.34
75940;BME280;75809;44.872;20.642;2024-03-23T04:34:32;100387.00;;;6.69;60.72
75940;BME280;75809;44.872;20.642;2024-03-23T04:36:58;100385.19;;;6.71;59.98
75940;BME280;75809;44.872;20.642;2024-03-23T04:39:24;100385.88;;;6.75;60.25
75940;BME280;75809;44.872;20.642;2024-03-23T04:41:49;100381.34;;;6.78;60.23
75940;BME280;75809;44.872;20.642;2024-03-23T04:44:15;100374.47;;;6.76;59.96
75940;BME280;75809;44.872;20.642;2024-03-23T04:46:40;100386.03;;;6.72;60.59
75940;BME280;75809;44.872;20.642;2024-03-23T04:49:06;100380.69;;;6.53;61.02
75940;BME280;75809;44.872;20.642;2024-03-23T04:51:40;100378.78;;;6.56;60.01
75940;BME280;75809;44.872;20.642;2024-03-23T04:54:11;100378.84;;;6.55;60.13
75940;BME280;75809;44.872;20.642;2024-03-23T04:56:37;100386.88;;;6.52;60.61
75940;BME280;75809;44.872;20.642;2024-03-23T04:59:02;100378.22;;;6.50;60.86
75940;BME280;75809;44.872;20.642;2024-03-23T05:01:33;100388.44;;;6.56;60.83
75940;BME280;75809;44.872;20.642;2024-03-23T05:03:58;100381.94;;;6.44;60.67
75940;BME280;75809;44.872;20.642;2024-03-23T05:06:24;100382.19;;;6.58;60.31
75940;BME280;75809;44.872;20.642;2024-03-23T05:08:53;100383.00;;;6.60;60.30
75940;BME280;75809;44.872;20.642;2024-03-23T05:11:19;100381.81;;;6.67;60.44
75940;BME280;75809;44.872;20.642;2024-03-23T05:13:46;100375.63;;;6.68;60.63
75940;BME280;75809;44.872;20.642;2024-03-23T05:16:11;100380.72;;;6.73;60.49
75940;BME280;75809;44.872;20.642;2024-03-23T05:18:36;100367.59;;;6.73;60.12
75940;BME280;75809;44.872;20.642;2024-03-23T05:21:02;100376.09;;;6.78;60.47
75940;BME280;75809;44.872;20.642;2024-03-23T05:23:28;100371.00;;;6.75;60.51
75940;BME280;75809;44.872;20.642;2024-03-23T05:25:55;100360.25;;;6.81;60.35
75940;BME280;75809;44.872;20.642;2024-03-23T05:28:21;100360.25;;;6.81;60.64
75940;BME280;75809;44.872;20.642;2024-03-23T05:30:53;100361.66;;;6.88;60.14
75940;BME280;75809;44.872;20.642;2024-03-23T05:33:20;100360.63;;;6.92;60.17
75940;BME280;75809;44.872;20.642;2024-03-23T05:35:46;100349.75;;;7.00;59.45
75940;BME280;75809;44.872;20.642;2024-03-23T05:38:13;100356.59;;;7.04;59.88
75940;BME280;75809;44.872;20.642;2024-03-23T05:40:39;100357.44;;;7.05;59.34
75940;BME280;75809;44.872;20.642;2024-03-23T05:43:06;100359.31;;;7.03;60.08
75940;BME280;75809;44.872;20.642;2024-03-23T05:45:32;100354.81;;;7.05;59.84
75940;BME280;75809;44.872;20.642;2024-03-23T05:47:57;100362.56;;;7.08;59.75
75940;BME280;75809;44.872;20.642;2024-03-23T05:50:23;100355.97;;;7.18;59.79
75940;BME280;75809;44.872;20.642;2024-03-23T05:52:49;100358.47;;;7.21;59.40
75940;BME280;75809;44.872;20.642;2024-03-23T05:55:15;100357.75;;;7.17;58.97
75940;BME280;75809;44.872;20.642;2024-03-23T05:57:40;100366.16;;;7.25;59.29
75940;BME280;75809;44.872;20.642;2024-03-23T06:00:07;100360.75;;;7.29;59.40
75940;BME280;75809;44.872;20.642;2024-03-23T06:02:43;100352.78;;;7.30;58.65
75940;BME280;75809;44.872;20.642;2024-03-23T06:05:12;100361.34;;;7.35;59.27
75940;BME280;75809;44.872;20.642;2024-03-23T06:07:37;100359.34;;;7.40;58.82
75940;BME280;75809;44.872;20.642;2024-03-23T06:10:03;100351.31;;;7.43;59.60
75940;BME280;75809;44.872;20.642;2024-03-23T06:12:29;100357.91;;;7.52;59.51
75940;BME280;75809;44.872;20.642;2024-03-23T06:14:54;100352.38;;;7.58;59.69
75940;BME280;75809;44.872;20.642;2024-03-23T06:17:20;100359.63;;;7.72;58.90
75940;BME280;75809;44.872;20.642;2024-03-23T06:19:45;100356.72;;;7.78;59.34
75940;BME280;75809;44.872;20.642;2024-03-23T06:22:11;100358.59;;;7.93;59.78
75940;BME280;75809;44.872;20.642;2024-03-23T06:24:36;100348.41;;;8.04;58.71
75940;BME280;75809;44.872;20.642;2024-03-23T06:27:02;100345.34;;;8.13;59.48
75940;BME280;75809;44.872;20.642;2024-03-23T06:29:29;100351.69;;;8.27;59.26
75940;BME280;75809;44.872;20.642;2024-03-23T06:31:55;100348.44;;;8.40;58.79
75940;BME280;75809;44.872;20.642;2024-03-23T06:34:20;100351.91;;;8.58;58.79
75940;BME280;75809;44.872;20.642;2024-03-23T06:36:48;100343.53;;;8.67;58.58
75940;BME280;75809;44.872;20.642;2024-03-23T06:39:14;100337.63;;;8.80;58.44
75940;BME280;75809;44.872;20.642;2024-03-23T06:41:51;100337.78;;;8.94;58.31
75940;BME280;75809;44.872;20.642;2024-03-23T06:44:18;100341.56;;;9.06;58.55
75940;BME280;75809;44.872;20.642;2024-03-23T06:46:43;100340.91;;;9.18;58.42
75940;BME280;75809;44.872;20.642;2024-03-23T06:49:10;100336.75;;;9.30;58.38
75940;BME280;75809;44.872;20.642;2024-03-23T06:51:35;100337.03;;;9.41;58.52
75940;BME280;75809;44.872;20.642;2024-03-23T06:54:02;100334.66;;;9.52;58.17
75940;BME280;75809;44.872;20.642;2024-03-23T06:56:28;100333.03;;;9.65;57.90
75940;BME280;75809;44.872;20.642;2024-03-23T06:58:54;100334.84;;;9.80;57.38
75940;BME280;75809;44.872;20.642;2024-03-23T07:01:19;100334.13;;;9.93;56.86
75940;BME280;75809;44.872;20.642;2024-03-23T07:03:45;100337.59;;;10.09;56.77
75940;BME280;75809;44.872;20.642;2024-03-23T07:06:10;100330.84;;;10.19;56.92
75940;BME280;75809;44.872;20.642;2024-03-23T07:08:36;100324.53;;;10.37;56.76
75940;BME280;75809;44.872;20.642;2024-03-23T07:11:02;100325.50;;;10.51;55.77
75940;BME280;75809;44.872;20.642;2024-03-23T07:13:28;100327.25;;;10.66;55.93
75940;BME280;75809;44.872;20.642;2024-03-23T07:15:53;100314.34;;;10.76;55.29
75940;BME280;75809;44.872;20.642;2024-03-23T07:18:21;100317.84;;;10.90;55.54
75940;BME280;75809;44.872;20.642;2024-03-23T07:20:56;100305.78;;;11.00;54.80
75940;BME280;75809;44.872;20.642;2024-03-23T07:23:22;100310.50;;;11.10;54.16
75940;BME280;75809;44.872;20.642;2024-03-23T07:28:23;100303.03;;;11.30;53.89
75940;BME280;75809;44.872;20.642;2024-03-23T07:31:07;100302.34;;;11.41;52.80
75940;BME280;75809;44.872;20.642;2024-03-23T07:33:40;100301.19;;;11.59;53.10
75940;BME280;75809;44.872;20.642;2024-03-23T07:36:06;100301.88;;;11.76;52.20
75940;BME280;75809;44.872;20.642;2024-03-23T07:38:32;100303.50;;;11.93;52.09
75940;BME280;75809;44.872;20.642;2024-03-23T07:41:10;100299.56;;;11.98;52.19
75940;BME280;75809;44.872;20.642;2024-03-23T07:43:38;100298.47;;;12.15;51.68
75940;BME280;75809;44.872;20.642;2024-03-23T07:46:05;100298.72;;;12.25;51.12
75940;BME280;75809;44.872;20.642;2024-03-23T07:48:31;100294.41;;;12.36;50.82
75940;BME280;75809;44.872;20.642;2024-03-23T07:53:27;100294.31;;;12.63;50.83
75940;BME280;75809;44.872;20.642;2024-03-23T07:55:57;100282.84;;;12.75;50.32
75940;BME280;75809;44.872;20.642;2024-03-23T07:58:23;100283.91;;;12.86;50.44
75940;BME280;75809;44.872;20.642;2024-03-23T08:00:49;100270.69;;;12.98;49.46
75940;BME280;75809;44.872;20.642;2024-03-23T08:03:15;100262.69;;;13.11;48.76
75940;BME280;75809;44.872;20.642;2024-03-23T08:05:41;100267.91;;;13.25;48.74
75940;BME280;75809;44.872;20.642;2024-03-23T08:08:06;100264.16;;;13.41;48.34
75940;BME280;75809;44.872;20.642;2024-03-23T08:10:32;100268.56;;;13.53;47.83
75940;BME280;75809;44.872;20.642;2024-03-23T08:12:58;100260.91;;;13.61;46.73
75940;BME280;75809;44.872;20.642;2024-03-23T08:15:23;100265.53;;;13.70;47.09
75940;BME280;75809;44.872;20.642;2024-03-23T08:17:49;100263.03;;;13.80;47.24
75940;BME280;75809;44.872;20.642;2024-03-23T08:20:15;100268.41;;;13.91;46.98
75940;BME280;75809;44.872;20.642;2024-03-23T08:22:41;100268.97;;;14.07;46.87
75940;BME280;75809;44.872;20.642;2024-03-23T08:25:06;100252.94;;;14.20;46.78
75940;BME280;75809;44.872;20.642;2024-03-23T08:27:31;100260.72;;;14.34;45.31
75940;BME280;75809;44.872;20.642;2024-03-23T08:29:58;100249.28;;;14.45;45.16
75940;BME280;75809;44.872;20.642;2024-03-23T08:32:23;100257.66;;;14.52;44.85
75940;BME280;75809;44.872;20.642;2024-03-23T08:34:49;100251.63;;;14.61;44.09
75940;BME280;75809;44.872;20.642;2024-03-23T08:37:14;100250.09;;;14.69;44.48
75940;BME280;75809;44.872;20.642;2024-03-23T08:39:41;100253.72;;;14.80;44.03
75940;BME280;75809;44.872;20.642;2024-03-23T08:42:06;100248.53;;;14.89;43.59
75940;BME280;75809;44.872;20.642;2024-03-23T08:44:32;100245.75;;;15.02;43.67
75940;BME280;75809;44.872;20.642;2024-03-23T08:46:57;100241.63;;;15.09;42.98
75940;BME280;75809;44.872;20.642;2024-03-23T08:49:22;100236.66;;;15.16;42.58
75940;BME280;75809;44.872;20.642;2024-03-23T08:51:48;100234.47;;;15.32;42.74
75940;BME280;75809;44.872;20.642;2024-03-23T08:54:13;100229.00;;;15.45;42.23
75940;BME280;75809;44.872;20.642;2024-03-23T08:56:39;100222.81;;;15.55;42.16
75940;BME280;75809;44.872;20.642;2024-03-23T08:59:04;100215.06;;;15.64;41.78
75940;BME280;75809;44.872;20.642;2024-03-23T09:01:30;100218.19;;;15.69;41.19
75940;BME280;75809;44.872;20.642;2024-03-23T09:03:55;100208.97;;;15.73;40.98
75940;BME280;75809;44.872;20.642;2024-03-23T09:06:21;100207.38;;;15.81;41.18
75940;BME280;75809;44.872;20.642;2024-03-23T09:08:46;100201.84;;;15.94;40.44
75940;BME280;75809;44.872;20.642;2024-03-23T09:11:13;100196.94;;;16.10;40.19
75940;BME280;75809;44.872;20.642;2024-03-23T09:13:39;100194.84;;;16.14;40.15
75940;BME280;75809;44.872;20.642;2024-03-23T09:16:05;100191.41;;;16.23;40.04
75940;BME280;75809;44.872;20.642;2024-03-23T09:18:32;100176.06;;;16.36;39.54
75940;BME280;75809;44.872;20.642;2024-03-23T09:20:58;100176.88;;;16.37;38.69
75940;BME280;75809;44.872;20.642;2024-03-23T09:23:24;100178.63;;;16.38;38.88
75940;BME280;75809;44.872;20.642;2024-03-23T09:25:49;100177.97;;;16.55;38.95
75940;BME280;75809;44.872;20.642;2024-03-23T09:28:15;100167.50;;;16.63;38.69
75940;BME280;75809;44.872;20.642;2024-03-23T09:30:40;100166.88;;;16.71;38.90
75940;BME280;75809;44.872;20.642;2024-03-23T09:33:10;100160.13;;;16.76;38.08
75940;BME280;75809;44.872;20.642;2024-03-23T09:35:39;100158.50;;;16.85;37.66
75940;BME280;75809;44.872;20.642;2024-03-23T09:38:05;100150.81;;;16.92;37.98
75940;BME280;75809;44.872;20.642;2024-03-23T09:40:33;100161.38;;;17.03;38.06
75940;BME280;75809;44.872;20.642;2024-03-23T09:42:58;100156.44;;;17.08;37.36
75940;BME280;75809;44.872;20.642;2024-03-23T09:45:28;100142.44;;;17.16;37.58
75940;BME280;75809;44.872;20.642;2024-03-23T09:47:57;100142.31;;;17.27;36.91
75940;BME280;75809;44.872;20.642;2024-03-23T09:50:22;100130.34;;;17.31;36.69
75940;BME280;75809;44.872;20.642;2024-03-23T09:52:48;100125.03;;;17.41;36.41
75940;BME280;75809;44.872;20.642;2024-03-23T09:55:14;100116.19;;;17.50;36.39
75940;BME280;75809;44.872;20.642;2024-03-23T09:57:41;100108.72;;;17.63;36.13
75940;BME280;75809;44.872;20.642;2024-03-23T10:00:07;100108.47;;;17.66;35.81
75940;BME280;75809;44.872;20.642;2024-03-23T10:02:34;100109.03;;;17.70;35.70
75940;BME280;75809;44.872;20.642;2024-03-23T10:05:00;100100.72;;;17.82;35.79
75940;BME280;75809;44.872;20.642;2024-03-23T10:07:26;100087.88;;;17.96;35.57
75940;BME280;75809;44.872;20.642;2024-03-23T10:09:54;100087.72;;;18.07;35.35
75940;BME280;75809;44.872;20.642;2024-03-23T10:12:19;100090.63;;;18.23;34.83
75940;BME280;75809;44.872;20.642;2024-03-23T10:14:45;100087.09;;;18.32;34.79
75940;BME280;75809;44.872;20.642;2024-03-23T10:19:39;100081.22;;;18.56;34.25
75940;BME280;75809;44.872;20.642;2024-03-23T10:22:04;100074.69;;;18.68;34.60
75940;BME280;75809;44.872;20.642;2024-03-23T10:24:30;100068.41;;;18.87;33.95
75940;BME280;75809;44.872;20.642;2024-03-23T10:26:58;100070.84;;;18.98;33.37
75940;BME280;75809;44.872;20.642;2024-03-23T10:29:23;100058.84;;;19.02;32.98
75940;BME280;75809;44.872;20.642;2024-03-23T10:31:52;100057.56;;;19.06;32.90
75940;BME280;75809;44.872;20.642;2024-03-23T10:34:25;100052.66;;;19.20;32.71
75940;BME280;75809;44.872;20.642;2024-03-23T10:36:53;100050.75;;;19.30;32.50
75940;BME280;75809;44.872;20.642;2024-03-23T10:39:20;100042.41;;;19.33;32.72
75940;BME280;75809;44.872;20.642;2024-03-23T10:41:49;100041.47;;;19.42;32.30
75940;BME280;75809;44.872;20.642;2024-03-23T10:44:19;100026.47;;;19.49;32.24
75940;BME280;75809;44.872;20.642;2024-03-23T10:46:45;100020.22;;;19.58;32.19
75940;BME280;75809;44.872;20.642;2024-03-23T10:49:10;100013.94;;;19.68;31.97
75940;BME280;75809;44.872;20.642;2024-03-23T10:51:38;100019.81;;;19.71;31.54
75940;BME280;75809;44.872;20.642;2024-03-23T10:54:05;100006.47;;;19.79;31.47
75940;BME280;75809;44.872;20.642;2024-03-23T10:56:34;100002.44;;;19.83;31.44
75940;BME280;75809;44.872;20.642;2024-03-23T10:59:02;99993.91;;;19.88;31.11
75940;BME280;75809;44.872;20.642;2024-03-23T11:01:30;99997.03;;;20.01;30.80
75940;BME280;75809;44.872;20.642;2024-03-23T11:03:56;99978.66;;;20.14;31.14
75940;BME280;75809;44.872;20.642;2024-03-23T11:06:37;99973.34;;;20.22;30.94
75940;BME280;75809;44.872;20.642;2024-03-23T11:09:02;99972.75;;;20.45;31.17
75940;BME280;75809;44.872;20.642;2024-03-23T11:11:28;99968.13;;;20.63;30.65
75940;BME280;75809;44.872;20.642;2024-03-23T11:13:56;99980.41;;;20.74;29.98
75940;BME280;75809;44.872;20.642;2024-03-23T11:16:27;99968.47;;;20.76;30.32
75940;BME280;75809;44.872;20.642;2024-03-23T11:22:13;99950.53;;;20.85;29.27
75940;BME280;75809;44.872;20.642;2024-03-23T11:24:38;99947.69;;;20.87;29.20
75940;BME280;75809;44.872;20.642;2024-03-23T11:27:15;99950.38;;;20.95;29.67
75940;BME280;75809;44.872;20.642;2024-03-23T11:29:41;99946.34;;;20.99;29.28
75940;BME280;75809;44.872;20.642;2024-03-23T11:32:09;99940.16;;;20.98;28.82
75940;BME280;75809;44.872;20.642;2024-03-23T11:34:35;99926.53;;;21.00;29.02
75940;BME280;75809;44.872;20.642;2024-03-23T11:37:04;99928.06;;;21.19;28.80
75940;BME280;75809;44.872;20.642;2024-03-23T11:39:30;99918.31;;;21.34;28.32
75940;BME280;75809;44.872;20.642;2024-03-23T11:41:56;99901.34;;;21.42;27.15
75940;BME280;75809;44.872;20.642;2024-03-23T11:44:26;99903.84;;;21.51;27.36
75940;BME280;75809;44.872;20.642;2024-03-23T11:46:52;99896.41;;;21.70;27.49
75940;BME280;75809;44.872;20.642;2024-03-23T11:49:27;99899.59;;;21.73;26.80
75940;BME280;75809;44.872;20.642;2024-03-23T11:51:53;99885.66;;;21.70;26.46
75940;BME280;75809;44.872;20.642;2024-03-23T11:54:23;99887.84;;;21.66;26.81
75940;BME280;75809;44.872;20.642;2024-03-23T11:57:02;99877.06;;;21.74;26.70
75940;BME280;75809;44.872;20.642;2024-03-23T11:59:37;99877.59;;;22.01;26.70
75940;BME280;75809;44.872;20.642;2024-03-23T12:02:11;99868.09;;;22.21;26.90
75940;BME280;75809;44.872;20.642;2024-03-23T12:04:38;99860.59;;;22.39;26.31
75940;BME280;75809;44.872;20.642;2024-03-23T12:07:18;99844.09;;;22.88;25.47
75940;BME280;75809;44.872;20.642;2024-03-23T12:09:44;99839.63;;;23.18;24.27
75940;BME280;75809;44.872;20.642;2024-03-23T12:12:14;99846.06;;;23.61;23.78
75940;BME280;75809;44.872;20.642;2024-03-23T12:15:01;99833.41;;;24.49;22.73
75940;BME280;75809;44.872;20.642;2024-03-23T12:17:27;99825.59;;;25.38;21.57
75940;BME280;75809;44.872;20.642;2024-03-23T12:19:52;99841.09;;;25.99;21.17
75940;BME280;75809;44.872;20.642;2024-03-23T12:22:21;99827.94;;;26.63;20.41
75940;BME280;75809;44.872;20.642;2024-03-23T12:24:47;99806.69;;;28.22;19.17
75940;BME280;75809;44.872;20.642;2024-03-23T12:27:12;99800.16;;;29.55;17.70
75940;BME280;75809;44.872;20.642;2024-03-23T12:29:38;99792.16;;;30.50;16.17
75940;BME280;75809;44.872;20.642;2024-03-23T12:32:04;99782.63;;;31.41;16.33
75940;BME280;75809;44.872;20.642;2024-03-23T12:34:30;99791.09;;;32.08;15.31
75940;BME280;75809;44.872;20.642;2024-03-23T12:36:56;99786.16;;;32.84;14.70
75940;BME280;75809;44.872;20.642;2024-03-23T12:39:22;99783.81;;;32.93;14.44
75940;BME280;75809;44.872;20.642;2024-03-23T12:41:48;99777.19;;;33.44;13.97
75940;BME280;75809;44.872;20.642;2024-03-23T12:44:14;99773.16;;;34.22;13.39
75940;BME280;75809;44.872;20.642;2024-03-23T12:46:43;99770.75;;;34.31;13.39
75940;BME280;75809;44.872;20.642;2024-03-23T12:49:09;99765.97;;;33.89;13.04
75940;BME280;75809;44.872;20.642;2024-03-23T12:51:34;99754.69;;;34.40;13.05
75940;BME280;75809;44.872;20.642;2024-03-23T12:54:00;99758.38;;;34.56;12.99
75940;BME280;75809;44.872;20.642;2024-03-23T12:56:26;99754.38;;;34.36;12.92
75940;BME280;75809;44.872;20.642;2024-03-23T12:58:53;99754.66;;;34.72;12.92
75940;BME280;75809;44.872;20.642;2024-03-23T13:01:20;99749.53;;;34.80;12.55
75940;BME280;75809;44.872;20.642;2024-03-23T13:03:47;99743.38;;;35.05;12.70
75940;BME280;75809;44.872;20.642;2024-03-23T13:06:12;99738.16;;;35.61;12.01
75940;BME280;75809;44.872;20.642;2024-03-23T13:08:38;99731.94;;;35.24;12.28
75940;BME280;75809;44.872;20.642;2024-03-23T13:11:05;99733.09;;;35.33;12.23
75940;BME280;75809;44.872;20.642;2024-03-23T13:13:31;99732.09;;;34.65;12.60
75940;BME280;75809;44.872;20.642;2024-03-23T13:15:57;99728.38;;;34.44;12.43
75940;BME280;75809;44.872;20.642;2024-03-23T13:18:22;99716.94;;;34.89;12.69
75940;BME280;75809;44.872;20.642;2024-03-23T13:20:48;99718.09;;;33.97;13.07
75940;BME280;75809;44.872;20.642;2024-03-23T13:23:13;99715.84;;;34.90;12.52
75940;BME280;75809;44.872;20.642;2024-03-23T13:25:39;99712.13;;;34.37;12.90
75940;BME280;75809;44.872;20.642;2024-03-23T13:28:04;99718.41;;;33.52;13.38
75940;BME280;75809;44.872;20.642;2024-03-23T13:30:30;99701.75;;;35.29;12.41
75940;BME280;75809;44.872;20.642;2024-03-23T13:32:55;99716.13;;;34.94;12.98
75940;BME280;75809;44.872;20.642;2024-03-23T13:35:21;99703.59;;;32.87;14.34
75940;BME280;75809;44.872;20.642;2024-03-23T13:37:47;99701.69;;;33.80;13.53
75940;BME280;75809;44.872;20.642;2024-03-23T13:40:13;99701.06;;;32.86;13.86
75940;BME280;75809;44.872;20.642;2024-03-23T13:42:39;99687.94;;;33.26;14.05
75940;BME280;75809;44.872;20.642;2024-03-23T13:45:05;99685.56;;;34.11;13.69
75940;BME280;75809;44.872;20.642;2024-03-23T13:47:32;99685.56;;;33.57;13.56